sensor_id;sensor_type;location;lat;lon;timestamp;pressure;altitude;pressure_sealevel;temperature;humidity
66381;BME280;53177;52.648;1.214;2023-05-22T00:00:08;101552.59;;;10.74;92.76
66381;BME280;53177;52.648;1.214;2023-05-22T00:02:34;101540.25;;;10.73;92.82
66381;BME280;53177;52.648;1.214;2023-05-22T00:05:06;101543.75;;;10.75;92.88
66381;BME280;53177;52.648;1.214;2023-05-22T00:07:31;101548.16;;;10.74;93.12
66381;BME280;53177;52.648;1.214;2023-05-22T00:09:57;101543.81;;;10.70;93.43
66381;BME280;53177;52.648;1.214;2023-05-22T00:12:22;101536.75;;;10.68;93.43
66381;BME280;53177;52.648;1.214;2023-05-22T00:14:48;101542.97;;;10.67;93.60
66381;BME280;53177;52.648;1.214;2023-05-22T00:17:13;101531.47;;;10.68;93.49
66381;BME280;53177;52.648;1.214;2023-05-22T00:19:39;101544.69;;;10.71;93.43
66381;BME280;53177;52.648;1.214;2023-05-22T00:22:05;101540.25;;;10.73;93.26
66381;BME280;53177;52.648;1.214;2023-05-22T00:24:30;101533.22;;;10.70;93.43
66381;BME280;53177;52.648;1.214;2023-05-22T00:26:56;101535.00;;;10.68;93.55
66381;BME280;53177;52.648;1.214;2023-05-22T00:29:22;101537.63;;;10.70;93.54
66381;BME280;53177;52.648;1.214;2023-05-22T00:31:47;101525.28;;;10.70;93.62
66381;BME280;53177;52.648;1.214;2023-05-22T00:34:13;101530.53;;;10.73;93.69
66381;BME280;53177;52.648;1.214;2023-05-22T00:36:38;101526.13;;;10.74;93.31
66381;BME280;53177;52.648;1.214;2023-05-22T00:39:03;101526.09;;;10.75;93.26
66381;BME280;53177;52.648;1.214;2023-05-22T00:41:30;101528.72;;;10.79;93.35
66381;BME280;53177;52.648;1.214;2023-05-22T00:43:58;101525.16;;;10.81;93.18
66381;BME280;53177;52.648;1.214;2023-05-22T00:46:24;101518.16;;;10.79;93.54
66381;BME280;53177;52.648;1.214;2023-05-22T00:48:49;101514.63;;;10.78;93.13
66381;BME280;53177;52.648;1.214;2023-05-22T00:51:18;101509.34;;;10.78;93.13
66381;BME280;53177;52.648;1.214;2023-05-22T00:53:45;101514.59;;;10.83;93.09
66381;BME280;53177;52.648;1.214;2023-05-22T00:56:10;101511.00;;;10.85;93.11
66381;BME280;53177;52.648;1.214;2023-05-22T00:58:37;101507.47;;;10.86;93.06
66381;BME280;53177;52.648;1.214;2023-05-22T01:01:03;101514.50;;;10.87;92.97
66381;BME280;53177;52.648;1.214;2023-05-22T01:03:31;101504.78;;;10.89;92.98
66381;BME280;53177;52.648;1.214;2023-05-22T01:05:57;101501.28;;;10.89;93.04
66381;BME280;53177;52.648;1.214;2023-05-22T01:08:23;101503.97;;;10.86;93.21
66381;BME280;53177;52.648;1.214;2023-05-22T01:10:53;101506.56;;;10.87;93.24
66381;BME280;53177;52.648;1.214;2023-05-22T01:16:31;101512.75;;;10.88;93.74
66381;BME280;53177;52.648;1.214;2023-05-22T01:27:18;101502.25;;;10.80;94.32
66381;BME280;53177;52.648;1.214;2023-05-22T01:33:06;101499.63;;;10.79;94.63
66381;BME280;53177;52.648;1.214;2023-05-22T01:35:33;101496.97;;;10.79;95.18
66381;BME280;53177;52.648;1.214;2023-05-22T01:38:01;101495.25;;;10.74;95.09
66381;BME280;53177;52.648;1.214;2023-05-22T01:40:28;101492.53;;;10.79;95.21
66381;BME280;53177;52.648;1.214;2023-05-22T01:42:54;101493.41;;;10.80;95.21
66381;BME280;53177;52.648;1.214;2023-05-22T01:45:19;101490.81;;;10.77;95.28
66381;BME280;53177;52.648;1.214;2023-05-22T01:47:45;101491.69;;;10.77;95.14
66381;BME280;53177;52.648;1.214;2023-05-22T01:50:11;101492.50;;;10.84;95.68
66381;BME280;53177;52.648;1.214;2023-05-22T01:52:46;101486.34;;;10.82;95.50
66381;BME280;53177;52.648;1.214;2023-05-22T01:55:24;101484.56;;;10.85;95.56
66381;BME280;53177;52.648;1.214;2023-05-22T01:57:58;101490.78;;;10.81;95.95
66381;BME280;53177;52.648;1.214;2023-05-22T02:00:26;101488.97;;;10.85;95.68
66381;BME280;53177;52.648;1.214;2023-05-22T02:02:59;101488.13;;;10.81;96.07
66381;BME280;53177;52.648;1.214;2023-05-22T02:05:28;101486.34;;;10.82;95.83
66381;BME280;53177;52.648;1.214;2023-05-22T02:07:59;101484.56;;;10.84;95.88
66381;BME280;53177;52.648;1.214;2023-05-22T02:10:28;101483.69;;;10.83;96.20
66381;BME280;53177;52.648;1.214;2023-05-22T02:12:54;101466.97;;;10.83;96.35
66381;BME280;53177;52.648;1.214;2023-05-22T02:15:20;101475.72;;;10.86;95.94
66381;BME280;53177;52.648;1.214;2023-05-22T02:17:45;101463.38;;;10.84;96.09
66381;BME280;53177;52.648;1.214;2023-05-22T02:20:15;101461.66;;;10.81;96.48
66381;BME280;53177;52.648;1.214;2023-05-22T02:22:44;101466.97;;;10.80;96.37
66381;BME280;53177;52.648;1.214;2023-05-22T02:25:11;101456.41;;;10.78;96.44
66381;BME280;53177;52.648;1.214;2023-05-22T02:27:46;101466.09;;;10.79;96.40
66381;BME280;53177;52.648;1.214;2023-05-22T02:30:14;101459.06;;;10.78;96.88
66381;BME280;53177;52.648;1.214;2023-05-22T02:32:40;101454.63;;;10.80;96.65
66381;BME280;53177;52.648;1.214;2023-05-22T02:35:06;101444.03;;;10.80;96.49
66381;BME280;53177;52.648;1.214;2023-05-22T02:37:32;101442.34;;;10.74;97.07
66381;BME280;53177;52.648;1.214;2023-05-22T02:39:57;101440.59;;;10.72;97.19
66381;BME280;53177;52.648;1.214;2023-05-22T02:42:23;101448.63;;;10.66;97.53
66381;BME280;53177;52.648;1.214;2023-05-22T02:44:48;101441.53;;;10.68;97.43
66381;BME280;53177;52.648;1.214;2023-05-22T02:47:14;101438.03;;;10.67;97.50
66381;BME280;53177;52.648;1.214;2023-05-22T02:49:39;101433.63;;;10.66;97.59
66381;BME280;53177;52.648;1.214;2023-05-22T02:52:05;101436.22;;;10.69;97.76
66381;BME280;53177;52.648;1.214;2023-05-22T02:54:30;101440.63;;;10.69;97.46
66381;BME280;53177;52.648;1.214;2023-05-22T02:56:56;101433.53;;;10.72;97.61
66381;BME280;53177;52.648;1.214;2023-05-22T02:59:21;101443.22;;;10.75;97.31
66381;BME280;53177;52.648;1.214;2023-05-22T03:01:47;101437.94;;;10.75;97.43
66381;BME280;53177;52.648;1.214;2023-05-22T03:04:12;101439.66;;;10.76;97.54
66381;BME280;53177;52.648;1.214;2023-05-22T03:06:38;101443.22;;;10.75;97.49
66381;BME280;53177;52.648;1.214;2023-05-22T03:09:04;101444.09;;;10.75;97.49
66381;BME280;53177;52.648;1.214;2023-05-22T03:11:32;101437.94;;;10.75;96.99
66381;BME280;53177;52.648;1.214;2023-05-22T03:14:00;101438.81;;;10.74;96.81
66381;BME280;53177;52.648;1.214;2023-05-22T03:16:27;101436.19;;;10.74;96.95
66381;BME280;53177;52.648;1.214;2023-05-22T03:19:11;101423.78;;;10.78;96.77
66381;BME280;53177;52.648;1.214;2023-05-22T03:21:37;101427.31;;;10.77;97.24
66381;BME280;53177;52.648;1.214;2023-05-22T03:24:03;101422.91;;;10.79;97.15
66381;BME280;53177;52.648;1.214;2023-05-22T03:26:29;101418.50;;;10.78;97.12
66381;BME280;53177;52.648;1.214;2023-05-22T03:28:55;101421.16;;;10.78;97.21
66381;BME280;53177;52.648;1.214;2023-05-22T03:31:23;101414.97;;;10.79;97.17
66381;BME280;53177;52.648;1.214;2023-05-22T03:33:48;101418.44;;;10.82;96.97
66381;BME280;53177;52.648;1.214;2023-05-22T03:36:14;101408.78;;;10.78;97.07
66381;BME280;53177;52.648;1.214;2023-05-22T03:38:40;101410.59;;;10.74;96.95
66381;BME280;53177;52.648;1.214;2023-05-22T03:41:05;101413.22;;;10.76;97.17
66381;BME280;53177;52.648;1.214;2023-05-22T03:43:32;101403.50;;;10.77;96.94
66381;BME280;53177;52.648;1.214;2023-05-22T03:45:57;101403.50;;;10.77;96.76
66381;BME280;53177;52.648;1.214;2023-05-22T03:48:23;101404.41;;;10.75;96.91
66381;BME280;53177;52.648;1.214;2023-05-22T03:50:49;101399.09;;;10.77;97.02
66381;BME280;53177;52.648;1.214;2023-05-22T03:53:15;101396.44;;;10.79;97.12
66381;BME280;53177;52.648;1.214;2023-05-22T03:55:40;101398.22;;;10.78;96.69
66381;BME280;53177;52.648;1.214;2023-05-22T03:58:06;101395.53;;;10.80;96.98
66381;BME280;53177;52.648;1.214;2023-05-22T04:00:31;101392.00;;;10.79;96.40
66381;BME280;53177;52.648;1.214;2023-05-22T04:02:57;101392.88;;;10.81;96.38
66381;BME280;53177;52.648;1.214;2023-05-22T04:05:23;101392.84;;;10.84;96.41
66381;BME280;53177;52.648;1.214;2023-05-22T04:07:48;101385.78;;;10.86;96.05
66381;BME280;53177;52.648;1.214;2023-05-22T04:10:14;101399.88;;;10.84;95.90
66381;BME280;53177;52.648;1.214;2023-05-22T04:12:40;101400.75;;;10.86;96.12
66381;BME280;53177;52.648;1.214;2023-05-22T04:15:07;101401.56;;;10.91;95.85
66381;BME280;53177;52.648;1.214;2023-05-22T04:17:37;101404.19;;;10.94;95.71
66381;BME280;53177;52.648;1.214;2023-05-22T04:20:03;101401.56;;;10.92;95.39
66381;BME280;53177;52.648;1.214;2023-05-22T04:22:29;101392.72;;;10.93;95.34
66381;BME280;53177;52.648;1.214;2023-05-22T04:24:55;101400.69;;;10.92;95.31
66381;BME280;53177;52.648;1.214;2023-05-22T04:27:23;101395.38;;;10.93;95.23
66381;BME280;53177;52.648;1.214;2023-05-22T04:29:50;101391.81;;;10.96;94.95
66381;BME280;53177;52.648;1.214;2023-05-22T04:32:17;101395.34;;;10.95;94.87
66381;BME280;53177;52.648;1.214;2023-05-22T04:34:47;101402.38;;;10.96;94.84
66381;BME280;53177;52.648;1.214;2023-05-22T04:37:12;101398.84;;;10.97;94.97
66381;BME280;53177;52.648;1.214;2023-05-22T04:39:39;101402.34;;;10.99;95.15
66381;BME280;53177;52.648;1.214;2023-05-22T04:42:04;101395.28;;;10.99;95.24
66381;BME280;53177;52.648;1.214;2023-05-22T04:44:33;101399.59;;;11.05;95.48
66381;BME280;53177;52.648;1.214;2023-05-22T04:47:01;101400.53;;;11.04;95.20
66381;BME280;53177;52.648;1.214;2023-05-22T04:49:28;101393.41;;;11.06;95.13
66381;BME280;53177;52.648;1.214;2023-05-22T04:51:56;101397.00;;;11.03;95.24
66381;BME280;53177;52.648;1.214;2023-05-22T04:54:22;101400.47;;;11.07;95.40
66381;BME280;53177;52.648;1.214;2023-05-22T04:56:48;101397.81;;;11.08;95.66
66381;BME280;53177;52.648;1.214;2023-05-22T04:59:14;101387.25;;;11.05;95.57
66381;BME280;53177;52.648;1.214;2023-05-22T05:01:40;101392.53;;;11.07;95.59
66381;BME280;53177;52.648;1.214;2023-05-22T05:04:10;101393.47;;;11.04;95.55
66381;BME280;53177;52.648;1.214;2023-05-22T05:06:35;101390.78;;;11.06;95.66
66381;BME280;53177;52.648;1.214;2023-05-22T05:09:04;101394.31;;;11.05;95.62
66381;BME280;53177;52.648;1.214;2023-05-22T05:11:30;101398.72;;;11.06;95.62
66381;BME280;53177;52.648;1.214;2023-05-22T05:13:55;101402.25;;;11.06;95.96
66381;BME280;53177;52.648;1.214;2023-05-22T05:16:21;101398.69;;;11.07;95.82
66381;BME280;53177;52.648;1.214;2023-05-22T05:18:47;101402.13;;;11.12;95.45
66381;BME280;53177;52.648;1.214;2023-05-22T05:21:12;101395.06;;;11.13;95.39
66381;BME280;53177;52.648;1.214;2023-05-22T05:23:38;101397.69;;;11.16;95.38
66381;BME280;53177;52.648;1.214;2023-05-22T05:26:03;101395.91;;;11.16;95.30
66381;BME280;53177;52.648;1.214;2023-05-22T05:28:28;101399.31;;;11.24;94.94
66381;BME280;53177;52.648;1.214;2023-05-22T05:30:54;101394.03;;;11.24;95.01
66381;BME280;53177;52.648;1.214;2023-05-22T05:33:19;101397.50;;;11.30;95.39
66381;BME280;53177;52.648;1.214;2023-05-22T05:35:45;101398.34;;;11.32;94.67
66381;BME280;53177;52.648;1.214;2023-05-22T05:38:10;101390.44;;;11.29;94.85
66381;BME280;53177;52.648;1.214;2023-05-22T05:40:35;101395.75;;;11.27;94.54
66381;BME280;53177;52.648;1.214;2023-05-22T05:43:01;101393.97;;;11.28;95.01
66381;BME280;53177;52.648;1.214;2023-05-22T05:45:27;101395.81;;;11.24;94.93
66381;BME280;53177;52.648;1.214;2023-05-22T05:47:52;101394.91;;;11.25;95.10
66381;BME280;53177;52.648;1.214;2023-05-22T05:50:19;101392.25;;;11.27;95.31
66381;BME280;53177;52.648;1.214;2023-05-22T05:52:45;101394.03;;;11.24;95.26
66381;BME280;53177;52.648;1.214;2023-05-22T05:55:10;101392.25;;;11.27;95.25
66381;BME280;53177;52.648;1.214;2023-05-22T05:57:36;101394.91;;;11.25;95.04
66381;BME280;53177;52.648;1.214;2023-05-22T06:00:01;101401.97;;;11.26;95.16
66381;BME280;53177;52.648;1.214;2023-05-22T06:02:27;101400.19;;;11.27;94.42
66381;BME280;53177;52.648;1.214;2023-05-22T06:04:52;101401.03;;;11.30;94.69
66381;BME280;53177;52.648;1.214;2023-05-22T06:07:18;101400.09;;;11.31;94.34
66381;BME280;53177;52.648;1.214;2023-05-22T06:09:43;101412.41;;;11.35;94.02
66381;BME280;53177;52.648;1.214;2023-05-22T06:12:09;101409.69;;;11.40;93.88
66381;BME280;53177;52.648;1.214;2023-05-22T06:14:37;101413.22;;;11.40;93.57
66381;BME280;53177;52.648;1.214;2023-05-22T06:17:04;101416.72;;;11.42;93.60
66381;BME280;53177;52.648;1.214;2023-05-22T06:19:30;101414.94;;;11.44;93.40
66381;BME280;53177;52.648;1.214;2023-05-22T06:21:55;101416.75;;;11.41;92.77
66381;BME280;53177;52.648;1.214;2023-05-22T06:24:21;101424.63;;;11.45;92.92
66381;BME280;53177;52.648;1.214;2023-05-22T06:26:46;101427.19;;;11.51;92.84
66381;BME280;53177;52.648;1.214;2023-05-22T06:29:11;101438.59;;;11.55;92.52
66381;BME280;53177;52.648;1.214;2023-05-22T06:31:37;101428.91;;;11.54;91.87
66381;BME280;53177;52.648;1.214;2023-05-22T06:34:04;101441.25;;;11.53;91.45
66381;BME280;53177;52.648;1.214;2023-05-22T06:36:29;101440.31;;;11.57;91.66
66381;BME280;53177;52.648;1.214;2023-05-22T06:38:55;101457.03;;;11.61;91.01
66381;BME280;53177;52.648;1.214;2023-05-22T06:41:20;101449.84;;;11.70;91.78
66381;BME280;53177;52.648;1.214;2023-05-22T06:43:46;101454.38;;;11.64;90.47
66381;BME280;53177;52.648;1.214;2023-05-22T06:46:12;101446.44;;;11.64;90.63
66381;BME280;53177;52.648;1.214;2023-05-22T06:48:37;101450.75;;;11.69;90.61
66381;BME280;53177;52.648;1.214;2023-05-22T06:51:03;101450.75;;;11.71;90.25
66381;BME280;53177;52.648;1.214;2023-05-22T06:53:28;101455.97;;;11.76;89.59
66381;BME280;53177;52.648;1.214;2023-05-22T06:55:55;101456.78;;;11.81;89.52
66381;BME280;53177;52.648;1.214;2023-05-22T06:58:20;101455.94;;;11.77;88.81
66381;BME280;53177;52.648;1.214;2023-05-22T07:00:46;101454.13;;;11.82;88.79
66381;BME280;53177;52.648;1.214;2023-05-22T07:03:11;101464.72;;;11.81;89.05
66381;BME280;53177;52.648;1.214;2023-05-22T07:05:36;101470.97;;;11.78;89.58
66381;BME280;53177;52.648;1.214;2023-05-22T07:08:02;101466.56;;;11.77;89.16
66381;BME280;53177;52.648;1.214;2023-05-22T07:10:28;101465.75;;;11.70;89.04
66381;BME280;53177;52.648;1.214;2023-05-22T07:12:54;101463.06;;;11.74;89.31
66381;BME280;53177;52.648;1.214;2023-05-22T07:15:19;101461.19;;;11.82;89.39
66381;BME280;53177;52.648;1.214;2023-05-22T07:17:44;101465.50;;;11.89;89.67
66381;BME280;53177;52.648;1.214;2023-05-22T07:20:11;101469.19;;;11.79;88.83
66381;BME280;53177;52.648;1.214;2023-05-22T07:22:40;101475.44;;;11.75;88.97
66381;BME280;53177;52.648;1.214;2023-05-22T07:25:05;101465.63;;;11.80;88.92
66381;BME280;53177;52.648;1.214;2023-05-22T07:27:31;101470.03;;;11.81;88.47
66381;BME280;53177;52.648;1.214;2023-05-22T07:29:56;101474.38;;;11.85;88.68
66381;BME280;53177;52.648;1.214;2023-05-22T07:32:22;101474.34;;;11.86;88.54
66381;BME280;53177;52.648;1.214;2023-05-22T07:34:47;101488.47;;;11.88;88.76
66381;BME280;53177;52.648;1.214;2023-05-22T07:37:12;101490.13;;;11.94;88.21
66381;BME280;53177;52.648;1.214;2023-05-22T07:39:38;101491.88;;;11.95;88.23
66381;BME280;53177;52.648;1.214;2023-05-22T07:42:04;101498.06;;;11.94;88.25
66381;BME280;53177;52.648;1.214;2023-05-22T07:44:30;101494.59;;;11.92;87.79
66381;BME280;53177;52.648;1.214;2023-05-22T07:46:55;101506.03;;;11.94;87.82
66381;BME280;53177;52.648;1.214;2023-05-22T07:49:24;101500.81;;;11.89;87.40
66381;BME280;53177;52.648;1.214;2023-05-22T07:51:50;101506.97;;;11.91;87.75
66381;BME280;53177;52.648;1.214;2023-05-22T07:54:16;101502.38;;;12.02;87.61
66381;BME280;53177;52.648;1.214;2023-05-22T07:56:43;101506.72;;;12.08;87.22
66381;BME280;53177;52.648;1.214;2023-05-22T07:59:10;101510.91;;;12.19;87.10
66381;BME280;53177;52.648;1.214;2023-05-22T08:01:39;101502.81;;;12.29;87.02
66381;BME280;53177;52.648;1.214;2023-05-22T08:04:05;101502.75;;;12.33;86.50
66381;BME280;53177;52.648;1.214;2023-05-22T08:06:31;101496.50;;;12.34;86.02
66381;BME280;53177;52.648;1.214;2023-05-22T08:08:56;101493.84;;;12.36;86.01
66381;BME280;53177;52.648;1.214;2023-05-22T08:11:21;101492.81;;;12.44;86.21
66381;BME280;53177;52.648;1.214;2023-05-22T08:13:47;101501.59;;;12.46;85.53
66381;BME280;53177;52.648;1.214;2023-05-22T08:16:12;101494.19;;;12.65;86.06
66381;BME280;53177;52.648;1.214;2023-05-22T08:18:38;101499.66;;;13.02;84.67
66381;BME280;53177;52.648;1.214;2023-05-22T08:21:03;101512.69;;;13.15;83.98
66381;BME280;53177;52.648;1.214;2023-05-22T08:23:28;101509.06;;;13.20;83.37
66381;BME280;53177;52.648;1.214;2023-05-22T08:25:55;101507.59;;;13.03;82.89
66381;BME280;53177;52.648;1.214;2023-05-22T08:28:20;101500.06;;;13.27;82.80
66381;BME280;53177;52.648;1.214;2023-05-22T08:30:46;101484.66;;;13.42;82.07
66381;BME280;53177;52.648;1.214;2023-05-22T08:33:11;101490.69;;;13.50;82.29
66381;BME280;53177;52.648;1.214;2023-05-22T08:35:37;101501.44;;;13.84;81.63
66381;BME280;53177;52.648;1.214;2023-05-22T08:38:02;101499.66;;;13.83;80.43
66381;BME280;53177;52.648;1.214;2023-05-22T08:40:34;101504.00;;;13.87;80.17
66381;BME280;53177;52.648;1.214;2023-05-22T08:43:06;101506.81;;;13.81;80.84
66381;BME280;53177;52.648;1.214;2023-05-22T08:45:34;101502.38;;;13.82;80.30
66381;BME280;53177;52.648;1.214;2023-05-22T08:48:03;101491.97;;;14.08;80.15
66381;BME280;53177;52.648;1.214;2023-05-22T08:50:35;101493.41;;;14.23;79.63
66381;BME280;53177;52.648;1.214;2023-05-22T08:53:07;101490.81;;;14.55;79.70
66381;BME280;53177;52.648;1.214;2023-05-22T08:55:33;101496.84;;;14.60;77.82
66381;BME280;53177;52.648;1.214;2023-05-22T08:57:59;101503.56;;;14.75;77.98
66381;BME280;53177;52.648;1.214;2023-05-22T09:00:25;101502.47;;;15.14;77.82
66381;BME280;53177;52.648;1.214;2023-05-22T09:02:51;101501.03;;;15.01;76.39
66381;BME280;53177;52.648;1.214;2023-05-22T09:05:17;101508.38;;;14.60;76.42
66381;BME280;53177;52.648;1.214;2023-05-22T09:07:43;101514.06;;;14.11;78.47
66381;BME280;53177;52.648;1.214;2023-05-22T09:10:09;101524.28;;;13.91;78.18
66381;BME280;53177;52.648;1.214;2023-05-22T09:12:34;101521.00;;;13.82;79.63
66381;BME280;53177;52.648;1.214;2023-05-22T09:15:08;101524.91;;;13.64;80.03
66381;BME280;53177;52.648;1.214;2023-05-22T09:17:37;101525.78;;;13.64;80.05
66381;BME280;53177;52.648;1.214;2023-05-22T09:20:03;101531.50;;;13.48;80.58
66381;BME280;53177;52.648;1.214;2023-05-22T09:22:36;101526.03;;;13.55;80.52
66381;BME280;53177;52.648;1.214;2023-05-22T09:25:05;101537.47;;;13.57;79.98
66381;BME280;53177;52.648;1.214;2023-05-22T09:27:33;101544.72;;;13.51;80.30
66381;BME280;53177;52.648;1.214;2023-05-22T09:29:59;101548.31;;;13.48;80.48
66381;BME280;53177;52.648;1.214;2023-05-22T09:32:28;101553.91;;;13.35;81.44
66381;BME280;53177;52.648;1.214;2023-05-22T09:34:53;101556.28;;;13.48;83.02
66381;BME280;53177;52.648;1.214;2023-05-22T09:37:27;101565.97;;;13.51;82.20
66381;BME280;53177;52.648;1.214;2023-05-22T09:39:52;101569.25;;;13.21;81.44
66381;BME280;53177;52.648;1.214;2023-05-22T09:42:19;101564.97;;;13.12;82.26
66381;BME280;53177;52.648;1.214;2023-05-22T09:44:48;101572.16;;;13.07;83.27
66381;BME280;53177;52.648;1.214;2023-05-22T09:47:14;101568.56;;;13.11;83.43
66381;BME280;53177;52.648;1.214;2023-05-22T09:49:40;101569.41;;;13.13;83.36
66381;BME280;53177;52.648;1.214;2023-05-22T09:52:07;101570.22;;;13.16;83.77
66381;BME280;53177;52.648;1.214;2023-05-22T09:54:33;101570.28;;;13.13;83.29
66381;BME280;53177;52.648;1.214;2023-05-22T09:57:00;101559.75;;;13.07;83.13
66381;BME280;53177;52.648;1.214;2023-05-22T09:59:27;101563.38;;;13.03;83.42
66381;BME280;53177;52.648;1.214;2023-05-22T10:01:55;101559.31;;;12.84;83.30
66381;BME280;53177;52.648;1.214;2023-05-22T10:04:22;101563.72;;;12.84;83.75
66381;BME280;53177;52.648;1.214;2023-05-22T10:06:53;101549.50;;;12.86;83.40
66381;BME280;53177;52.648;1.214;2023-05-22T10:09:23;101554.22;;;12.72;83.63
66381;BME280;53177;52.648;1.214;2023-05-22T10:11:52;101548.06;;;12.70;83.58
66381;BME280;53177;52.648;1.214;2023-05-22T10:14:19;101538.59;;;12.55;84.52
66381;BME280;53177;52.648;1.214;2023-05-22T10:16:44;101549.31;;;12.49;85.29
66381;BME280;53177;52.648;1.214;2023-05-22T10:19:11;101542.97;;;12.56;85.32
66381;BME280;53177;52.648;1.214;2023-05-22T10:21:38;101545.56;;;12.61;85.25
66381;BME280;53177;52.648;1.214;2023-05-22T10:24:05;101548.69;;;12.83;84.86
66381;BME280;53177;52.648;1.214;2023-05-22T10:26:32;101546.78;;;12.92;84.61
66381;BME280;53177;52.648;1.214;2023-05-22T10:29:13;101549.03;;;13.12;83.92
66381;BME280;53177;52.648;1.214;2023-05-22T10:32:02;101563.72;;;13.31;83.61
66381;BME280;53177;52.648;1.214;2023-05-22T10:37:11;101566.88;;;13.50;82.87
66381;BME280;53177;52.648;1.214;2023-05-22T10:39:52;101558.97;;;13.47;81.92
66381;BME280;53177;52.648;1.214;2023-05-22T10:42:18;101571.44;;;13.43;81.89
66381;BME280;53177;52.648;1.214;2023-05-22T10:44:46;101577.88;;;13.33;82.21
66381;BME280;53177;52.648;1.214;2023-05-22T10:47:13;101578.78;;;13.31;82.81
66381;BME280;53177;52.648;1.214;2023-05-22T10:49:42;101583.53;;;13.15;83.05
66381;BME280;53177;52.648;1.214;2023-05-22T10:52:11;101580.25;;;12.99;83.91
66381;BME280;53177;52.648;1.214;2023-05-22T10:54:43;101587.34;;;12.99;84.23
66381;BME280;53177;52.648;1.214;2023-05-22T10:57:18;101586.53;;;12.95;84.81
66381;BME280;53177;52.648;1.214;2023-05-22T10:59:47;101590.88;;;12.99;85.03
66381;BME280;53177;52.648;1.214;2023-05-22T11:02:23;101587.66;;;12.82;84.66
66381;BME280;53177;52.648;1.214;2023-05-22T11:04:53;101587.69;;;12.79;84.67
66381;BME280;53177;52.648;1.214;2023-05-22T11:07:18;101590.47;;;12.73;83.72
66381;BME280;53177;52.648;1.214;2023-05-22T11:09:44;101584.22;;;12.76;84.33
66381;BME280;53177;52.648;1.214;2023-05-22T11:12:13;101584.22;;;12.77;84.36
66381;BME280;53177;52.648;1.214;2023-05-22T11:14:40;101580.63;;;12.80;83.68
66381;BME280;53177;52.648;1.214;2023-05-22T11:17:06;101577.19;;;12.73;84.56
66381;BME280;53177;52.648;1.214;2023-05-22T11:19:31;101577.88;;;12.86;83.50
66381;BME280;53177;52.648;1.214;2023-05-22T11:22:00;101577.94;;;12.81;82.98
66381;BME280;53177;52.648;1.214;2023-05-22T11:24:32;101563.72;;;12.85;82.48
66381;BME280;53177;52.648;1.214;2023-05-22T11:27:05;101583.38;;;12.74;82.79
66381;BME280;53177;52.648;1.214;2023-05-22T11:29:31;101578.13;;;12.71;82.46
66381;BME280;53177;52.648;1.214;2023-05-22T11:31:57;101578.97;;;12.74;83.40
66381;BME280;53177;52.648;1.214;2023-05-22T11:34:23;101584.09;;;12.83;82.83
66381;BME280;53177;52.648;1.214;2023-05-22T11:36:51;101584.75;;;12.96;82.52
66381;BME280;53177;52.648;1.214;2023-05-22T11:39:16;101590.81;;;13.02;82.69
66381;BME280;53177;52.648;1.214;2023-05-22T11:41:42;101591.28;;;13.26;82.63
66381;BME280;53177;52.648;1.214;2023-05-22T11:44:07;101588.56;;;13.30;83.36
66381;BME280;53177;52.648;1.214;2023-05-22T11:46:33;101587.09;;;13.14;85.97
66381;BME280;53177;52.648;1.214;2023-05-22T11:48:59;101589.75;;;13.14;90.28
66381;BME280;53177;52.648;1.214;2023-05-22T11:51:26;101586.38;;;13.03;90.68
66381;BME280;53177;52.648;1.214;2023-05-22T11:53:51;101585.88;;;12.83;91.04
66381;BME280;53177;52.648;1.214;2023-05-22T11:56:19;101587.63;;;12.84;93.99
66381;BME280;53177;52.648;1.214;2023-05-22T11:58:49;101584.81;;;12.93;93.70
66381;BME280;53177;52.648;1.214;2023-05-22T12:01:16;101586.66;;;12.88;93.77
66381;BME280;53177;52.648;1.214;2023-05-22T12:03:41;101585.59;;;12.98;92.49
66381;BME280;53177;52.648;1.214;2023-05-22T12:06:07;101584.69;;;12.99;91.54
66381;BME280;53177;52.648;1.214;2023-05-22T12:08:33;101596.34;;;12.92;89.76
66381;BME280;53177;52.648;1.214;2023-05-22T12:10:59;101596.34;;;12.92;90.00
66381;BME280;53177;52.648;1.214;2023-05-22T12:13:28;101598.91;;;12.95;89.04
66381;BME280;53177;52.648;1.214;2023-05-22T12:15:57;101598.97;;;12.93;87.68
66381;BME280;53177;52.648;1.214;2023-05-22T12:18:24;101590.47;;;12.73;87.92
66381;BME280;53177;52.648;1.214;2023-05-22T12:20:51;101600.78;;;12.90;88.29
66381;BME280;53177;52.648;1.214;2023-05-22T12:23:25;101595.44;;;12.91;86.70
66381;BME280;53177;52.648;1.214;2023-05-22T12:25:58;101597.41;;;13.29;86.95
66381;BME280;53177;52.648;1.214;2023-05-22T12:28:25;101593.13;;;13.63;86.14
66381;BME280;53177;52.648;1.214;2023-05-22T12:30:54;101592.97;;;13.71;83.93
66381;BME280;53177;52.648;1.214;2023-05-22T12:33:29;101595.63;;;13.71;82.43
66381;BME280;53177;52.648;1.214;2023-05-22T12:35:56;101588.03;;;13.96;80.18
66381;BME280;53177;52.648;1.214;2023-05-22T12:38:25;101587.63;;;14.49;79.53
66381;BME280;53177;52.648;1.214;2023-05-22T12:40:52;101585.03;;;14.48;78.20
66381;BME280;53177;52.648;1.214;2023-05-22T12:43:20;101585.94;;;14.47;76.32
66381;BME280;53177;52.648;1.214;2023-05-22T12:45:46;101593.94;;;14.45;76.12
66381;BME280;53177;52.648;1.214;2023-05-22T12:48:11;101595.13;;;14.32;74.99
66381;BME280;53177;52.648;1.214;2023-05-22T12:50:37;101594.34;;;14.27;75.45
66381;BME280;53177;52.648;1.214;2023-05-22T12:53:03;101590.94;;;14.22;75.63
66381;BME280;53177;52.648;1.214;2023-05-22T12:55:28;101595.75;;;14.06;76.63
66381;BME280;53177;52.648;1.214;2023-05-22T12:57:54;101592.47;;;13.95;76.09
66381;BME280;53177;52.648;1.214;2023-05-22T13:00:21;101594.44;;;13.86;76.09
66381;BME280;53177;52.648;1.214;2023-05-22T13:02:47;101584.41;;;13.98;76.14
66381;BME280;53177;52.648;1.214;2023-05-22T13:05:12;101594.97;;;14.01;74.75